createdAt,value
2023-02-10T00:01:50.210Z,43.40
2023-02-10T00:04:18.896Z,43.40
2023-02-10T00:06:45.659Z,43.90
2023-02-10T00:09:14.325Z,44.20
2023-02-10T00:12:01.065Z,44.20
2023-02-10T00:14:28.695Z,44.00
2023-02-10T00:16:55.516Z,43.60
2023-02-10T00:19:26.021Z,43.40
2023-02-10T00:21:52.798Z,43.90
2023-02-10T00:24:19.965Z,43.50
2023-02-10T00:26:46.905Z,43.80
2023-02-10T00:29:13.894Z,43.90
2023-02-10T00:31:41.156Z,43.50
2023-02-10T00:36:51.372Z,44.00
2023-02-10T00:39:20.965Z,44.10
2023-02-10T00:41:47.591Z,43.80
2023-02-10T00:44:16.249Z,44.20
2023-02-10T00:46:45.463Z,43.80
2023-02-10T00:49:13.270Z,44.30
2023-02-10T00:51:41.321Z,44.00
2023-02-10T00:54:08.029Z,43.80
2023-02-10T00:56:34.597Z,43.60
2023-02-10T00:59:01.242Z,43.90
2023-02-10T01:01:27.879Z,44.20
2023-02-10T01:03:54.455Z,44.00
2023-02-10T01:06:21.044Z,43.70
2023-02-10T01:08:47.580Z,44.10
2023-02-10T01:11:14.285Z,44.30
2023-02-10T01:13:42.048Z,43.80
2023-02-10T01:16:11.292Z,43.90
2023-02-10T01:18:42.107Z,44.20
2023-02-10T01:21:13.254Z,43.90
2023-02-10T01:23:40.019Z,43.80
2023-02-10T01:26:07.374Z,43.70
2023-02-10T01:28:34.108Z,43.90
2023-02-10T01:31:05.219Z,43.70
2023-02-10T01:33:31.786Z,43.90
2023-02-10T01:35:58.369Z,44.30
2023-02-10T01:38:24.932Z,43.70
2023-02-10T01:40:51.532Z,44.10
2023-02-10T01:43:18.558Z,43.80
2023-02-10T01:45:47.304Z,44.10
2023-02-10T01:48:14.877Z,44.30
2023-02-10T01:50:41.426Z,43.90
2023-02-10T01:53:08.086Z,43.80
2023-02-10T01:55:36.076Z,44.30
2023-02-10T01:58:04.368Z,44.20
2023-02-10T02:00:31.044Z,44.10
2023-02-10T02:02:58.475Z,43.80
2023-02-10T02:05:33.138Z,44.10
2023-02-10T02:08:02.694Z,43.50
2023-02-10T02:10:38.199Z,44.20
2023-02-10T02:13:10.760Z,43.90
2023-02-10T02:15:41.434Z,43.60
2023-02-10T02:18:09.620Z,43.80
2023-02-10T02:20:50.611Z,43.80
2023-02-10T02:23:29.273Z,43.60
2023-02-10T02:26:14.938Z,43.40
2023-02-10T02:28:50.616Z,43.60
2023-02-10T02:31:43.548Z,43.50
2023-02-10T02:34:16.327Z,43.60
2023-02-10T02:36:48.698Z,43.50
2023-02-10T02:39:15.268Z,43.50
2023-02-10T02:41:41.864Z,43.60
2023-02-10T02:44:08.550Z,43.20
2023-02-10T02:46:47.369Z,43.40
2023-02-10T02:49:32.926Z,43.20
2023-02-10T02:52:11.485Z,43.30
2023-02-10T02:54:59.967Z,43.40
2023-02-10T02:57:38.389Z,43.50
2023-02-10T03:00:11.559Z,43.60
2023-02-10T03:02:41.565Z,43.20
2023-02-10T03:05:09.812Z,43.30
2023-02-10T03:07:36.356Z,43.40
2023-02-10T03:10:03.619Z,43.60
2023-02-10T03:12:30.426Z,44.00
2023-02-10T03:14:57.096Z,43.70
2023-02-10T03:17:23.666Z,43.60
2023-02-10T03:19:50.247Z,44.00
2023-02-10T03:22:16.853Z,43.80
2023-02-10T03:24:43.421Z,43.30
2023-02-10T03:27:10.035Z,43.80
2023-02-10T03:29:36.577Z,44.30
2023-02-10T03:32:04.651Z,43.30
2023-02-10T03:34:31.268Z,43.50
2023-02-10T03:36:57.899Z,43.30
2023-02-10T03:39:24.464Z,43.20
2023-02-10T03:41:51.066Z,43.30
2023-02-10T03:44:17.776Z,43.50
2023-02-10T03:46:44.533Z,43.40
2023-02-10T03:49:11.202Z,43.80
2023-02-10T03:51:37.868Z,43.50
2023-02-10T03:54:04.452Z,44.10
2023-02-10T03:56:31.032Z,43.10
2023-02-10T03:58:57.603Z,43.40
2023-02-10T04:01:24.249Z,44.40
2023-02-10T04:03:50.925Z,43.10
2023-02-10T04:06:17.599Z,43.70
2023-02-10T04:08:44.224Z,43.50
2023-02-10T04:11:10.952Z,43.30
2023-02-10T04:13:37.955Z,43.30
2023-02-10T04:16:05.878Z,43.50
2023-02-10T04:18:32.908Z,43.20
2023-02-10T04:20:59.900Z,44.10
2023-02-10T04:23:26.512Z,44.10
2023-02-10T04:25:53.352Z,43.60
2023-02-10T04:28:20.190Z,43.70
2023-02-10T04:30:46.866Z,43.90
2023-02-10T04:33:13.476Z,43.20
2023-02-10T04:35:40.078Z,43.50
2023-02-10T04:38:06.679Z,43.50
2023-02-10T04:40:33.237Z,43.90
2023-02-10T04:42:59.830Z,43.60
2023-02-10T04:45:26.470Z,43.80
2023-02-10T04:47:53.138Z,43.50
2023-02-10T04:50:19.850Z,44.00
2023-02-10T04:52:46.426Z,43.40
2023-02-10T04:55:13.037Z,43.60
2023-02-10T04:57:39.656Z,43.20
2023-02-10T05:00:06.924Z,43.60
2023-02-10T05:02:33.711Z,43.70
2023-02-10T05:05:00.598Z,43.20
2023-02-10T05:07:27.164Z,43.40
2023-02-10T05:09:53.772Z,43.70
2023-02-10T05:12:20.346Z,43.60
2023-02-10T05:14:46.914Z,43.30
2023-02-10T05:17:13.510Z,43.40
2023-02-10T05:19:40.241Z,43.60
2023-02-10T05:22:06.797Z,43.30
2023-02-10T05:24:33.570Z,43.40
2023-02-10T05:27:00.151Z,43.50
2023-02-10T05:29:26.812Z,43.50
2023-02-10T05:31:53.423Z,43.30
2023-02-10T05:34:20.040Z,43.60
2023-02-10T05:36:46.818Z,43.70
2023-02-10T05:39:25.779Z,43.70
2023-02-10T05:41:56.793Z,43.40
2023-02-10T05:44:23.892Z,43.50
2023-02-10T05:46:50.726Z,43.60
2023-02-10T05:49:17.686Z,43.80
2023-02-10T05:51:44.531Z,44.00
2023-02-10T05:54:11.328Z,44.00
2023-02-10T05:56:38.308Z,43.50
2023-02-10T05:59:05.346Z,43.50
2023-02-10T06:01:32.381Z,43.70
2023-02-10T06:03:58.943Z,43.40
2023-02-10T06:06:25.930Z,44.00
2023-02-10T06:08:52.495Z,43.70
2023-02-10T06:11:19.093Z,44.00
2023-02-10T06:13:45.677Z,43.60
2023-02-10T06:16:12.382Z,43.80
2023-02-10T06:18:39.135Z,43.70
2023-02-10T06:21:05.832Z,43.50
2023-02-10T06:23:32.488Z,44.10
2023-02-10T06:25:59.972Z,43.90
2023-02-10T06:28:27.142Z,44.10
2023-02-10T06:30:54.231Z,43.90
2023-02-10T06:33:20.842Z,43.70
2023-02-10T06:35:48.304Z,43.70
2023-02-10T06:38:16.330Z,43.70
2023-02-10T06:40:43.114Z,44.00
2023-02-10T06:43:09.647Z,44.20
2023-02-10T06:45:36.398Z,43.70
2023-02-10T06:48:03.116Z,43.60
2023-02-10T06:50:29.751Z,43.70
2023-02-10T06:52:56.465Z,43.60
2023-02-10T06:55:23.222Z,44.00
2023-02-10T06:57:49.815Z,44.10
2023-02-10T07:00:16.609Z,44.00
2023-02-10T07:02:44.184Z,44.00
2023-02-10T07:05:11.650Z,43.90
2023-02-10T07:07:38.789Z,43.70
2023-02-10T07:10:05.598Z,44.00
2023-02-10T07:12:32.198Z,43.70
2023-02-10T07:14:58.789Z,44.10
2023-02-10T07:17:25.362Z,44.00
2023-02-10T07:19:51.987Z,43.70
2023-02-10T07:22:18.667Z,43.80
2023-02-10T07:24:45.219Z,44.00
2023-02-10T07:27:11.764Z,43.80
2023-02-10T07:29:38.517Z,44.20
2023-02-10T07:32:05.255Z,43.90
2023-02-10T07:34:34.929Z,43.80
2023-02-10T07:37:01.547Z,43.90
2023-02-10T07:39:28.289Z,44.20
2023-02-10T07:41:54.904Z,44.10
2023-02-10T07:44:21.882Z,44.30
2023-02-10T07:46:48.682Z,44.20
2023-02-10T07:49:15.227Z,44.00
2023-02-10T07:51:43.461Z,43.90
2023-02-10T07:54:10.240Z,43.90
2023-02-10T07:56:36.843Z,44.00
2023-02-10T07:59:03.388Z,44.30
2023-02-10T08:01:29.982Z,44.00
2023-02-10T08:03:58.188Z,44.00
2023-02-10T08:06:26.256Z,44.40
2023-02-10T08:08:52.830Z,44.40
2023-02-10T08:11:19.420Z,44.30
2023-02-10T08:13:46.221Z,44.00
2023-02-10T08:16:14.998Z,44.30
2023-02-10T08:18:42.189Z,44.50
2023-02-10T08:21:08.988Z,44.40
2023-02-10T08:23:36.058Z,44.30
2023-02-10T08:26:03.596Z,44.50
2023-02-10T08:28:30.244Z,44.60
2023-02-10T08:30:59.689Z,44.60
2023-02-10T08:33:28.508Z,44.20
2023-02-10T08:35:57.200Z,44.60
2023-02-10T08:38:23.806Z,44.80
2023-02-10T08:40:57.149Z,45.30
2023-02-10T08:43:24.227Z,45.70
2023-02-10T08:45:51.119Z,46.30
2023-02-10T08:48:18.211Z,46.60
2023-02-10T08:50:46.319Z,46.10
2023-02-10T08:53:12.953Z,46.90
2023-02-10T08:55:39.518Z,47.60
2023-02-10T08:58:07.399Z,46.40
2023-02-10T09:00:34.127Z,47.20
2023-02-10T09:03:00.913Z,47.40
2023-02-10T09:05:27.734Z,48.00
2023-02-10T09:07:54.386Z,47.00
2023-02-10T09:10:21.091Z,47.80
2023-02-10T09:12:49.222Z,48.20
2023-02-10T09:15:15.904Z,48.60
2023-02-10T09:17:42.449Z,48.10
2023-02-10T09:20:10.632Z,48.00
2023-02-10T09:22:37.208Z,48.20
2023-02-10T09:25:03.857Z,47.80
2023-02-10T09:27:30.387Z,47.60
2023-02-10T09:29:57.039Z,47.60
2023-02-10T09:32:23.625Z,47.30
2023-02-10T09:34:50.195Z,47.20
2023-02-10T09:37:16.764Z,47.30
2023-02-10T09:39:43.519Z,47.90
2023-02-10T09:42:13.924Z,48.30
2023-02-10T09:44:45.960Z,47.40
2023-02-10T09:47:18.746Z,47.70
2023-02-10T09:49:48.437Z,48.10
2023-02-10T09:52:30.311Z,48.50
2023-02-10T09:54:56.892Z,48.70
2023-02-10T09:57:28.766Z,49.30
2023-02-10T09:59:56.779Z,48.10
2023-02-10T10:02:31.729Z,48.90
2023-02-10T10:05:00.373Z,48.90
2023-02-10T10:07:46.657Z,49.40
2023-02-10T10:10:21.309Z,49.00
2023-02-10T10:12:47.874Z,49.10
2023-02-10T10:15:18.321Z,49.20
2023-02-10T10:17:51.451Z,49.80
2023-02-10T10:20:34.111Z,49.40
2023-02-10T10:23:16.290Z,49.10
2023-02-10T10:25:55.092Z,49.10
2023-02-10T10:28:21.713Z,49.80
2023-02-10T10:30:56.203Z,49.80
2023-02-10T10:33:25.327Z,49.10
2023-02-10T10:35:52.646Z,49.10
2023-02-10T10:38:23.564Z,48.20
2023-02-10T10:40:53.343Z,48.00
2023-02-10T10:43:25.875Z,48.20
2023-02-10T10:45:55.253Z,48.30
2023-02-10T10:48:27.532Z,48.20
2023-02-10T10:50:56.499Z,48.00
2023-02-10T10:53:35.274Z,48.00
2023-02-10T10:56:03.434Z,48.10
2023-02-10T10:58:30.088Z,49.30
2023-02-10T11:00:58.496Z,49.10
2023-02-10T11:03:25.445Z,48.90
2023-02-10T11:06:07.543Z,49.10
2023-02-10T11:08:35.592Z,48.70
2023-02-10T11:11:03.801Z,49.60
2023-02-10T11:13:31.651Z,49.40
2023-02-10T11:16:03.446Z,50.10
2023-02-10T11:18:30.495Z,49.90
2023-02-10T11:20:58.726Z,50.30
2023-02-10T11:23:27.642Z,49.80
2023-02-10T11:26:02.143Z,51.70
2023-02-10T11:28:30.421Z,52.20
2023-02-10T11:31:14.052Z,52.10
2023-02-10T11:33:40.771Z,52.00
2023-02-10T11:36:08.631Z,50.90
2023-02-10T11:38:36.116Z,51.70
2023-02-10T11:41:09.301Z,51.90
2023-02-10T11:43:46.282Z,52.60
2023-02-10T11:46:21.053Z,52.10
2023-02-10T11:48:58.068Z,51.80
2023-02-10T11:51:25.816Z,51.70
2023-02-10T11:53:52.465Z,51.70
2023-02-10T11:56:43.077Z,52.90
2023-02-10T11:59:12.495Z,51.90
2023-02-10T12:01:51.375Z,52.20
2023-02-10T12:04:30.540Z,51.80
2023-02-10T12:07:16.492Z,53.10
2023-02-10T12:09:47.031Z,52.50
2023-02-10T12:12:22.714Z,52.50
2023-02-10T12:14:49.279Z,52.70
2023-02-10T12:17:24.262Z,53.10
2023-02-10T12:20:03.157Z,52.50
2023-02-10T12:22:29.908Z,52.00
2023-02-10T12:25:04.030Z,52.30
2023-02-10T12:27:49.457Z,52.10
2023-02-10T12:30:37.087Z,52.90
2023-02-10T12:33:03.682Z,52.20
2023-02-10T12:35:31.134Z,53.60
2023-02-10T12:38:05.264Z,53.00
2023-02-10T12:40:50.683Z,53.50
2023-02-10T12:43:26.489Z,54.60
2023-02-10T12:46:09.310Z,53.60
2023-02-10T12:48:54.791Z,53.80
2023-02-10T12:51:44.417Z,54.20
2023-02-10T12:54:17.187Z,54.40
2023-02-10T12:56:43.748Z,54.30
2023-02-10T12:59:13.329Z,53.80
2023-02-10T13:01:52.045Z,53.70
2023-02-10T13:04:33.405Z,53.60
2023-02-10T13:07:08.490Z,53.50
2023-02-10T13:09:47.943Z,53.50
2023-02-10T13:12:19.607Z,53.40
2023-02-10T13:14:47.629Z,53.50
2023-02-10T13:17:14.738Z,53.30
2023-02-10T13:19:57.378Z,53.60
2023-02-10T13:22:32.963Z,53.60
2023-02-10T13:25:10.445Z,54.20
2023-02-10T13:27:44.362Z,54.00
2023-02-10T13:30:13.989Z,53.90
2023-02-10T13:32:59.665Z,54.00
2023-02-10T13:35:26.524Z,53.20
2023-02-10T13:37:55.360Z,54.70
2023-02-10T13:40:45.262Z,54.10
2023-02-10T13:43:24.472Z,53.80
2023-02-10T13:45:53.052Z,53.00
2023-02-10T13:48:24.760Z,53.10
2023-02-10T13:50:56.191Z,53.50
2023-02-10T13:53:28.737Z,53.90
2023-02-10T13:56:04.596Z,53.90
2023-02-10T13:58:33.943Z,54.10
2023-02-10T14:01:01.164Z,53.30
2023-02-10T14:03:31.937Z,54.10
2023-02-10T14:06:06.361Z,54.10
2023-02-10T14:08:53.427Z,53.90
2023-02-10T14:11:28.244Z,54.10
2023-02-10T14:14:03.223Z,53.00
2023-02-10T14:16:37.604Z,54.10
2023-02-10T14:19:20.155Z,53.50
2023-02-10T14:21:48.100Z,53.50
2023-02-10T14:24:26.741Z,53.90
2023-02-10T14:26:56.518Z,54.10
2023-02-10T14:29:24.369Z,54.30
2023-02-10T14:31:53.089Z,53.90
2023-02-10T14:34:27.533Z,55.10
2023-02-10T14:36:55.705Z,53.90
2023-02-10T14:39:23.629Z,52.90
2023-02-10T14:41:50.849Z,53.20
2023-02-10T14:44:29.583Z,53.80
2023-02-10T14:46:56.588Z,54.20
2023-02-10T14:49:23.683Z,53.80
2023-02-10T14:51:51.052Z,53.20
2023-02-10T14:54:18.844Z,54.30
2023-02-10T14:56:56.130Z,53.20
2023-02-10T14:59:24.043Z,53.20
2023-02-10T15:01:51.602Z,54.20
2023-02-10T15:04:18.760Z,53.70
2023-02-10T15:06:48.547Z,53.90
2023-02-10T15:09:17.977Z,54.40
2023-02-10T15:12:05.215Z,53.50
2023-02-10T15:14:37.107Z,53.60
2023-02-10T15:17:06.067Z,53.40
2023-02-10T15:19:32.767Z,54.30
2023-02-10T15:21:59.339Z,54.10
2023-02-10T15:24:28.097Z,54.80
2023-02-10T15:26:54.796Z,53.40
2023-02-10T15:29:22.251Z,53.40
2023-02-10T15:31:57.027Z,54.40
2023-02-10T15:34:28.356Z,54.60
2023-02-10T15:36:56.721Z,54.90
2023-02-10T15:39:24.815Z,55.00
2023-02-10T15:42:00.692Z,53.90
2023-02-10T15:44:33.362Z,53.90
2023-02-10T15:47:18.670Z,54.50
2023-02-10T15:49:46.040Z,54.70
2023-02-10T15:52:21.091Z,54.90
2023-02-10T15:54:51.915Z,53.80
2023-02-10T15:57:19.280Z,53.50
2023-02-10T15:59:48.047Z,54.60
2023-02-10T16:02:14.947Z,54.20
2023-02-10T16:04:43.905Z,54.40
2023-02-10T16:07:13.031Z,53.70
2023-02-10T16:09:40.012Z,53.80
2023-02-10T16:12:06.732Z,53.90
2023-02-10T16:14:33.306Z,54.10
2023-02-10T16:17:00.144Z,54.00
2023-02-10T16:19:27.731Z,53.50
2023-02-10T16:21:56.762Z,53.10
2023-02-10T16:24:25.123Z,54.20
2023-02-10T16:26:51.707Z,53.80
2023-02-10T16:29:20.052Z,53.70
2023-02-10T16:31:46.674Z,53.40
2023-02-10T16:34:13.550Z,54.40
2023-02-10T16:36:40.764Z,54.10
2023-02-10T16:39:11.859Z,53.90
2023-02-10T16:41:38.425Z,53.70
2023-02-10T16:44:04.988Z,53.10
2023-02-10T16:46:31.611Z,53.90
2023-02-10T16:48:58.226Z,53.70
2023-02-10T16:51:24.807Z,53.20
2023-02-10T16:53:55.609Z,53.70
2023-02-10T16:56:22.794Z,53.70
2023-02-10T16:58:49.904Z,53.50
2023-02-10T17:01:18.300Z,53.70
2023-02-10T17:03:45.158Z,53.60
2023-02-10T17:06:17.660Z,54.20
2023-02-10T17:08:44.206Z,53.80
2023-02-10T17:11:10.846Z,53.50
2023-02-10T17:13:37.389Z,53.40
2023-02-10T17:16:04.261Z,54.10
2023-02-10T17:18:30.863Z,54.10
2023-02-10T17:20:57.451Z,53.50
2023-02-10T17:23:24.022Z,53.80
2023-02-10T17:25:50.896Z,53.90
2023-02-10T17:28:18.061Z,53.60
2023-02-10T17:30:44.705Z,53.40
2023-02-10T17:33:25.527Z,54.70
2023-02-10T17:35:52.157Z,53.70
2023-02-10T17:38:37.624Z,53.60
2023-02-10T17:41:04.273Z,53.80
2023-02-10T17:43:30.851Z,54.10
2023-02-10T17:45:57.465Z,53.40
2023-02-10T17:48:24.038Z,53.20
2023-02-10T17:50:50.635Z,53.60
2023-02-10T17:53:18.185Z,53.40
2023-02-10T17:55:44.774Z,53.00
2023-02-10T17:58:11.367Z,52.80
2023-02-10T18:00:38.302Z,52.70
2023-02-10T18:03:04.918Z,53.10
2023-02-10T18:05:31.479Z,52.10
2023-02-10T18:07:58.052Z,51.80
2023-02-10T18:10:24.615Z,51.90
2023-02-10T18:12:51.143Z,52.00
2023-02-10T18:15:17.795Z,52.00
2023-02-10T18:17:44.823Z,51.70
2023-02-10T18:20:11.630Z,52.30
2023-02-10T18:22:38.281Z,52.30
2023-02-10T18:25:05.097Z,52.60
2023-02-10T18:27:31.723Z,52.20
2023-02-10T18:29:58.282Z,52.50
2023-02-10T18:32:24.859Z,52.70
2023-02-10T18:34:51.439Z,52.80
2023-02-10T18:37:18.000Z,52.00
2023-02-10T18:39:44.990Z,51.80
2023-02-10T18:42:11.563Z,51.80
2023-02-10T18:44:38.162Z,51.90
2023-02-10T18:47:04.782Z,52.00
2023-02-10T18:49:31.340Z,52.40
2023-02-10T18:51:58.015Z,52.00
2023-02-10T18:54:24.585Z,51.80
2023-02-10T18:56:51.142Z,51.90
2023-02-10T18:59:18.875Z,52.00
2023-02-10T19:01:45.673Z,52.00
2023-02-10T19:04:12.236Z,52.20
2023-02-10T19:06:38.756Z,52.10
2023-02-10T19:09:05.422Z,51.90
2023-02-10T19:11:32.054Z,51.80
2023-02-10T19:13:58.736Z,51.80
2023-02-10T19:16:25.844Z,52.20
2023-02-10T19:18:52.438Z,51.80
2023-02-10T19:21:20.475Z,51.80
2023-02-10T19:23:47.326Z,51.90
2023-02-10T19:26:14.202Z,51.60
2023-02-10T19:28:43.979Z,51.30
2023-02-10T19:31:12.016Z,51.30
2023-02-10T19:33:39.067Z,51.40
2023-02-10T19:36:09.652Z,51.20
2023-02-10T19:41:17.226Z,51.80
2023-02-10T19:43:44.456Z,51.70
2023-02-10T19:46:11.191Z,52.20
2023-02-10T19:48:38.542Z,51.80
2023-02-10T19:51:06.431Z,52.00
2023-02-10T19:53:33.273Z,51.40
2023-02-10T19:55:59.997Z,51.70
2023-02-10T19:58:26.900Z,52.10
2023-02-10T20:01:00.113Z,52.00
2023-02-10T20:03:26.844Z,52.20
2023-02-10T20:05:53.726Z,52.40
2023-02-10T20:08:20.453Z,52.30
2023-02-10T20:10:51.292Z,52.00
2023-02-10T20:13:18.123Z,52.50
2023-02-10T20:15:44.773Z,52.10
2023-02-10T20:18:11.429Z,52.30
2023-02-10T20:20:43.359Z,52.90
2023-02-10T20:23:11.069Z,52.00
2023-02-10T20:25:37.688Z,52.80
2023-02-10T20:28:04.464Z,53.00
2023-02-10T20:30:31.305Z,52.40
2023-02-10T20:32:57.885Z,52.40
2023-02-10T20:35:24.475Z,52.60
2023-02-10T20:37:51.179Z,52.50
2023-02-10T20:40:17.976Z,52.20
2023-02-10T20:42:48.536Z,52.30
2023-02-10T20:45:15.445Z,52.40
2023-02-10T20:47:42.079Z,52.30
2023-02-10T20:50:08.831Z,52.50
2023-02-10T20:52:37.202Z,52.80
2023-02-10T20:55:03.919Z,53.00
2023-02-10T20:57:30.449Z,52.40
2023-02-10T20:59:57.013Z,52.50
2023-02-10T21:02:23.612Z,52.70
2023-02-10T21:04:50.511Z,52.50
2023-02-10T21:07:17.368Z,52.10
2023-02-10T21:09:46.789Z,52.40
2023-02-10T21:12:13.377Z,52.40
2023-02-10T21:14:40.216Z,52.10
2023-02-10T21:17:06.796Z,52.50
2023-02-10T21:19:33.358Z,52.00
2023-02-10T21:21:59.985Z,52.10
2023-02-10T21:24:26.693Z,52.10
2023-02-10T21:26:54.903Z,52.00
2023-02-10T21:29:21.465Z,52.30
2023-02-10T21:31:48.193Z,52.40
2023-02-10T21:34:15.150Z,52.60
2023-02-10T21:36:41.918Z,52.80
2023-02-10T21:39:10.692Z,52.50
2023-02-10T21:41:43.201Z,52.70
2023-02-10T21:44:30.550Z,52.40
2023-02-10T21:46:58.368Z,52.10
2023-02-10T21:49:26.399Z,52.50
2023-02-10T21:51:53.623Z,52.10
2023-02-10T21:54:21.331Z,52.40
2023-02-10T21:56:48.079Z,52.20
2023-02-10T21:59:15.095Z,52.00
2023-02-10T22:01:42.468Z,52.00
2023-02-10T22:04:09.150Z,52.40
2023-02-10T22:06:36.653Z,52.20
2023-02-10T22:09:04.682Z,52.60
2023-02-10T22:11:31.308Z,52.10
2023-02-10T22:13:58.182Z,52.40
2023-02-10T22:16:24.990Z,52.20
2023-02-10T22:18:51.546Z,52.20
2023-02-10T22:21:19.470Z,52.20
2023-02-10T22:23:46.235Z,52.50
2023-02-10T22:26:13.775Z,52.60
2023-02-10T22:28:40.578Z,52.80
2023-02-10T22:31:08.194Z,52.50
2023-02-10T22:33:34.947Z,53.10
2023-02-10T22:36:05.355Z,52.20
2023-02-10T22:38:32.162Z,52.40
2023-02-10T22:40:58.723Z,51.90
2023-02-10T22:43:25.562Z,52.60
2023-02-10T22:45:53.257Z,51.90
2023-02-10T22:48:20.307Z,52.30
2023-02-10T22:50:46.955Z,52.30
2023-02-10T22:53:13.766Z,52.00
2023-02-10T22:55:40.315Z,52.50
2023-02-10T22:58:06.907Z,51.90
2023-02-10T23:00:36.902Z,51.90
2023-02-10T23:03:03.678Z,51.60
2023-02-10T23:05:30.258Z,52.10
2023-02-10T23:07:56.814Z,51.70
2023-02-10T23:10:23.410Z,51.80
2023-02-10T23:12:50.024Z,52.00
2023-02-10T23:15:16.903Z,51.60
2023-02-10T23:17:43.475Z,52.00
2023-02-10T23:20:10.078Z,52.30
2023-02-10T23:22:36.647Z,51.80
2023-02-10T23:25:03.273Z,51.50
2023-02-10T23:27:29.963Z,52.30
2023-02-10T23:29:57.046Z,51.30
2023-02-10T23:32:25.855Z,51.90
2023-02-10T23:34:53.365Z,51.90
2023-02-10T23:37:20.393Z,51.70
2023-02-10T23:39:47.181Z,52.10
2023-02-10T23:42:13.849Z,51.60
2023-02-10T23:44:40.410Z,51.60
2023-02-10T23:47:07.169Z,52.20
2023-02-10T23:49:33.711Z,51.20
2023-02-10T23:52:00.272Z,51.20
2023-02-10T23:54:26.810Z,51.70
2023-02-10T23:56:53.365Z,51.10
2023-02-10T23:59:20.799Z,50.80
